Terminal Aerodrome Forecast
Issued by NWS

Home | Current Version | Previous Version | Text Only | Print | Product List | Glossary On
Versions: 1 2 3 4 5 6 7 8 9 10 11 12 13 14 15 16 17 18 19 20 21 22 23 24 25 26 27 28
945
FTUS43 KGRR 131121
TAFLAN
TAF
KLAN 131121Z 1312/1412 18008KT P6SM OVC090
     FM131800 18004KT P6SM BKN080
     FM140600 00000KT 4SM BR OVC250
     FM140900 33003KT 1/2SM FG OVC015=

USA.gov is the U.S. government's official web portal to all federal, state and local government web resources and services.